Time;durP1;ratioP1;P1;durP2;ratioP2;P2;SDS_P1;SDS_P2;PMS_P1;PMS_P2;Temp;Humidity;BMP_temperature;BMP_pressure;BME280_temperature;BME280_humidity;BME280_pressure;Samples;Min_cycle;Max_cycle;Signal;HPM_P1;HPM_P2
2021/06/16 00:00:28;;;;;;;3.17;2.87;;;17.20;99.90;;;;;;5068121;28;20482;-69
2021/06/16 00:02:55;;;;;;;3.37;3.07;;;17.20;99.90;;;;;;5067880;28;20960;-69
2021/06/16 00:05:25;;;;;;;3.80;3.00;;;17.20;99.90;;;;;;5067735;28;20494;-69
2021/06/16 00:07:52;;;;;;;3.13;2.90;;;17.30;99.90;;;;;;5067807;28;20462;-69
2021/06/16 00:10:22;;;;;;;3.17;2.87;;;17.30;99.90;;;;;;5068216;28;20484;-67
2021/06/16 00:12:51;;;;;;;3.43;3.13;;;17.30;99.90;;;;;;5067245;28;20545;-69
2021/06/16 00:15:21;;;;;;;3.83;2.83;;;17.30;99.90;;;;;;5068282;28;20847;-68
2021/06/16 00:17:48;;;;;;;2.87;2.67;;;17.20;99.90;;;;;;5068304;28;20462;-68
2021/06/16 00:20:16;;;;;;;3.17;2.97;;;17.20;99.90;;;;;;5068046;28;20493;-69
2021/06/16 00:22:43;;;;;;;3.57;2.90;;;17.20;99.90;;;;;;5068004;28;20469;-69
2021/06/16 00:25:10;;;;;;;4.60;2.87;;;17.20;99.90;;;;;;5068033;28;20490;-69
2021/06/16 00:27:38;;;;;;;4.37;3.20;;;17.10;99.90;;;;;;5067795;28;20458;-68
2021/06/16 00:30:08;;;;;;;3.73;3.10;;;17.10;99.90;;;;;;5068101;28;20485;-69
2021/06/16 00:32:35;;;;;;;3.50;3.20;;;17.10;99.90;;;;;;5067533;28;20483;-69
2021/06/16 00:35:02;;;;;;;3.43;2.80;;;17.10;99.90;;;;;;5067806;28;20489;-69
2021/06/16 00:37:28;;;;;;;3.50;3.20;;;17.10;99.90;;;;;;5068156;28;20458;-69
2021/06/16 00:39:56;;;;;;;3.20;2.90;;;17.00;99.90;;;;;;5067400;28;21342;-69
2021/06/16 00:42:23;;;;;;;3.57;3.17;;;17.10;99.90;;;;;;5067768;28;20459;-69
2021/06/16 00:44:50;;;;;;;3.30;3.00;;;17.00;99.90;;;;;;5067243;28;20502;-69
2021/06/16 00:47:19;;;;;;;3.30;3.00;;;17.10;99.90;;;;;;5068292;28;20473;-68
2021/06/16 00:49:46;;;;;;;2.83;2.63;;;17.10;99.90;;;;;;5068319;28;20473;-68
2021/06/16 00:52:13;;;;;;;3.40;3.10;;;17.10;99.90;;;;;;5067777;28;20957;-68
2021/06/16 00:54:39;;;;;;;3.60;3.30;;;17.10;99.90;;;;;;5069486;28;20469;-69
2021/06/16 00:57:07;;;;;;;4.20;2.73;;;17.00;99.90;;;;;;5057609;28;20863;-69
2021/06/16 00:59:41;;;;;;;4.00;3.53;;;17.10;99.90;;;;;;5106820;22;20493;-71
2021/06/16 01:02:10;;;;;;;4.17;2.80;;;17.10;99.90;;;;;;5083876;28;20480;-72
2021/06/16 01:04:39;;;;;;;4.17;2.80;;;17.00;99.90;;;;;;5089797;28;20465;-71
2021/06/16 01:07:09;;;;;;;4.40;3.10;;;17.00;99.90;;;;;;5090506;28;20461;-71
2021/06/16 01:09:40;;;;;;;4.20;3.90;;;16.90;99.90;;;;;;5090252;28;20485;-71
2021/06/16 01:12:14;;;;;;;3.07;2.77;;;16.90;99.90;;;;;;5090145;28;20492;-71
2021/06/16 01:14:48;;;;;;;3.60;3.30;;;16.90;99.90;;;;;;5090185;28;20461;-72
2021/06/16 01:17:19;;;;;;;3.73;3.43;;;16.90;99.90;;;;;;5090028;28;20484;-72
2021/06/16 01:20:15;;;;;;;4.03;3.40;;;16.90;99.90;;;;;;5093370;28;20489;-71
2021/06/16 01:22:44;;;;;;;3.57;3.23;;;16.80;99.90;;;;;;5079608;28;20472;-71
2021/06/16 01:25:28;;;;;;;3.10;2.90;;;16.80;99.90;;;;;;5094216;28;20461;-71
2021/06/16 01:27:57;;;;;;;4.10;3.30;;;16.80;99.90;;;;;;5093533;28;20538;-72
2021/06/16 01:30:26;;;;;;;3.70;3.40;;;16.70;99.90;;;;;;5094079;28;20948;-72
2021/06/16 01:32:54;;;;;;;3.47;3.17;;;16.70;99.90;;;;;;5093640;28;20818;-71
2021/06/16 01:35:21;;;;;;;3.67;3.37;;;16.80;99.90;;;;;;5093530;28;20473;-71
2021/06/16 01:37:48;;;;;;;4.20;3.87;;;16.80;99.90;;;;;;5093496;28;20479;-71
2021/06/16 01:40:17;;;;;;;4.63;3.37;;;16.80;99.90;;;;;;5093393;28;20488;-71
2021/06/16 01:42:45;;;;;;;3.90;3.60;;;16.80;99.90;;;;;;5093377;28;20453;-71
2021/06/16 01:45:16;;;;;;;5.57;3.70;;;16.80;99.90;;;;;;5093789;28;20461;-71
2021/06/16 01:47:45;;;;;;;4.00;3.57;;;16.80;99.90;;;;;;5093222;28;20461;-71
2021/06/16 01:50:15;;;;;;;3.80;3.47;;;16.80;99.90;;;;;;5092540;28;20802;-71
2021/06/16 01:52:42;;;;;;;4.60;3.70;;;16.70;99.90;;;;;;5093031;28;20461;-71
2021/06/16 01:55:09;;;;;;;4.10;3.70;;;16.60;99.90;;;;;;5093534;28;20458;-71
2021/06/16 01:57:37;;;;;;;4.20;3.60;;;16.60;99.90;;;;;;5092430;28;21343;-71
2021/06/16 02:00:06;;;;;;;4.73;4.33;;;16.60;99.90;;;;;;5093483;28;20477;-71
2021/06/16 02:02:34;;;;;;;5.00;3.40;;;16.60;99.90;;;;;;5092940;28;20468;-71
2021/06/16 02:05:01;;;;;;;4.43;4.10;;;16.60;99.90;;;;;;5093168;28;20480;-72
2021/06/16 02:07:31;;;;;;;4.20;3.83;;;16.60;99.90;;;;;;5093009;28;20457;-71
2021/06/16 02:10:00;;;;;;;4.23;3.80;;;16.50;99.90;;;;;;5093182;28;20843;-71
2021/06/16 02:12:28;;;;;;;3.93;3.53;;;16.50;99.90;;;;;;5092660;28;20464;-71
2021/06/16 02:14:58;;;;;;;4.70;4.30;;;16.60;99.90;;;;;;5092932;28;20465;-71
2021/06/16 02:17:29;;;;;;;4.53;4.00;;;16.50;99.90;;;;;;5092859;28;20461;-72
2021/06/16 02:19:57;;;;;;;4.57;4.17;;;16.60;99.90;;;;;;5093016;28;21000;-72
2021/06/16 02:22:26;;;;;;;4.60;3.67;;;16.50;99.90;;;;;;5092234;28;20461;-71
2021/06/16 02:24:53;;;;;;;6.60;4.30;;;16.50;99.90;;;;;;5093020;28;20461;-71
2021/06/16 02:27:20;;;;;;;4.77;4.37;;;16.50;99.90;;;;;;5092278;28;20949;-72
2021/06/16 02:29:47;;;;;;;7.17;4.17;;;16.50;99.90;;;;;;5091759;28;20924;-71
2021/06/16 02:32:14;;;;;;;5.33;4.17;;;16.50;99.90;;;;;;5092215;28;20840;-72
2021/06/16 02:34:41;;;;;;;4.90;4.50;;;16.50;99.90;;;;;;5092852;28;20462;-72
2021/06/16 02:37:13;;;;;;;4.63;4.23;;;16.50;99.90;;;;;;5092734;28;20465;-72
2021/06/16 02:39:43;;;;;;;5.10;4.60;;;16.40;99.90;;;;;;5092215;28;20498;-71
2021/06/16 02:42:12;;;;;;;4.13;3.77;;;16.30;99.90;;;;;;5092318;28;20457;-71
2021/06/16 02:44:42;;;;;;;4.50;4.10;;;16.30;99.90;;;;;;5092232;28;20457;-71
2021/06/16 02:47:09;;;;;;;5.43;4.10;;;16.30;99.90;;;;;;5092231;28;20461;-72
2021/06/16 02:49:39;;;;;;;4.67;4.27;;;16.30;99.90;;;;;;5092270;28;20473;-71
2021/06/16 02:52:11;;;;;;;4.60;4.07;;;16.30;99.90;;;;;;5091990;28;20461;-72
2021/06/16 02:54:39;;;;;;;5.53;4.33;;;16.20;99.90;;;;;;5092337;28;20466;-71
2021/06/16 02:57:07;;;;;;;4.80;4.40;;;16.30;99.90;;;;;;5092106;28;20469;-71
2021/06/16 02:59:35;;;;;;;5.07;4.10;;;16.30;99.90;;;;;;5091857;28;20485;-72
2021/06/16 03:02:03;;;;;;;4.77;4.33;;;16.20;99.90;;;;;;5091766;28;20661;-71
2021/06/16 03:04:30;;;;;;;5.13;4.40;;;16.20;99.90;;;;;;5091937;28;20469;-72
2021/06/16 03:06:58;;;;;;;5.10;4.30;;;16.20;99.90;;;;;;5092121;28;20464;-72
2021/06/16 03:09:27;;;;;;;4.73;4.33;;;16.20;99.90;;;;;;5091545;28;20473;-71
2021/06/16 03:11:55;;;;;;;5.90;4.40;;;16.20;99.90;;;;;;5091790;28;20461;-71
2021/06/16 03:14:24;;;;;;;4.10;3.80;;;16.10;99.90;;;;;;5091423;28;21135;-71
2021/06/16 03:16:51;;;;;;;5.03;4.50;;;16.10;99.90;;;;;;5092070;28;20873;-72
2021/06/16 03:19:20;;;;;;;5.30;4.80;;;16.10;99.90;;;;;;5091325;28;20969;-72
2021/06/16 03:21:47;;;;;;;4.50;4.10;;;16.10;99.90;;;;;;5091581;28;20460;-72
2021/06/16 03:24:15;;;;;;;7.37;4.20;;;16.10;99.90;;;;;;5091696;28;20458;-72
2021/06/16 03:26:44;;;;;;;6.50;4.00;;;16.10;99.90;;;;;;5091635;28;20980;-72
2021/06/16 03:29:12;;;;;;;5.50;5.00;;;16.10;99.90;;;;;;5088256;28;20497;-72
2021/06/16 03:31:41;;;;;;;4.70;3.70;;;16.10;99.90;;;;;;5070075;28;20454;-73
2021/06/16 03:34:08;;;;;;;5.10;4.60;;;16.00;99.90;;;;;;5069982;28;20949;-72
2021/06/16 03:36:37;;;;;;;5.93;4.27;;;16.00;99.90;;;;;;5070905;28;20450;-72
2021/06/16 03:39:05;;;;;;;6.40;4.83;;;16.00;99.90;;;;;;5071092;28;20485;-72
2021/06/16 03:41:33;;;;;;;4.63;4.23;;;16.00;99.90;;;;;;5070448;28;20494;-72
2021/06/16 03:44:02;;;;;;;5.47;4.70;;;15.90;99.90;;;;;;5070979;28;20473;-73
2021/06/16 03:46:30;;;;;;;4.87;4.47;;;16.00;99.90;;;;;;5070376;28;20466;-73
2021/06/16 03:48:58;;;;;;;5.10;4.60;;;16.00;99.90;;;;;;5070671;28;21008;-72
2021/06/16 03:51:27;;;;;;;5.50;4.73;;;16.00;99.90;;;;;;5070677;28;20458;-72
2021/06/16 03:53:54;;;;;;;5.53;5.03;;;16.00;99.90;;;;;;5069928;28;20463;-72
2021/06/16 03:56:22;;;;;;;7.13;4.70;;;16.00;99.90;;;;;;5070673;28;20208;-71
2021/06/16 03:58:49;;;;;;;6.13;5.00;;;15.90;99.90;;;;;;5070827;28;20497;-71
2021/06/16 04:01:18;;;;;;;5.50;4.50;;;16.00;99.90;;;;;;5069172;28;20850;-71
2021/06/16 04:03:46;;;;;;;5.20;4.70;;;16.00;99.90;;;;;;5069109;28;20466;-71
2021/06/16 04:06:14;;;;;;;6.03;4.90;;;16.10;99.90;;;;;;5069955;28;20961;-71
2021/06/16 04:08:43;;;;;;;7.07;4.77;;;16.10;99.90;;;;;;5064024;28;20540;-71
2021/06/16 04:11:13;;;;;;;5.10;4.63;;;16.10;99.90;;;;;;5070403;28;20455;-72
2021/06/16 04:13:40;;;;;;;8.03;4.97;;;16.10;99.90;;;;;;5070651;28;20485;-73
2021/06/16 04:16:07;;;;;;;5.97;5.47;;;16.10;99.90;;;;;;5083342;28;20453;-72
2021/06/16 04:18:39;;;;;;;6.63;5.90;;;16.10;99.90;;;;;;5090567;28;20600;-72
2021/06/16 04:21:06;;;;;;;5.47;4.97;;;16.10;99.90;;;;;;5077254;28;20482;-72
2021/06/16 04:23:33;;;;;;;7.50;4.50;;;16.10;99.90;;;;;;5070302;28;20454;-72
2021/06/16 04:26:00;;;;;;;5.13;4.63;;;16.20;99.90;;;;;;5069952;28;20470;-72
2021/06/16 04:28:26;;;;;;;7.10;4.77;;;16.20;99.90;;;;;;5069968;28;20481;-72
2021/06/16 04:30:53;;;;;;;5.53;4.90;;;16.30;99.90;;;;;;5068799;28;20958;-72
2021/06/16 04:33:20;;;;;;;4.93;4.53;;;16.30;99.90;;;;;;5069860;28;20962;-72
2021/06/16 04:35:48;;;;;;;5.90;5.23;;;16.30;99.90;;;;;;5070569;28;20459;-71
2021/06/16 04:38:15;;;;;;;5.40;4.33;;;16.40;99.90;;;;;;5069912;28;21001;-72
2021/06/16 04:40:41;;;;;;;4.40;4.10;;;16.40;99.90;;;;;;5070286;28;20482;-72
2021/06/16 04:43:08;;;;;;;7.20;4.50;;;16.40;99.90;;;;;;5070086;28;20461;-72
2021/06/16 04:45:35;;;;;;;5.50;4.70;;;16.40;99.90;;;;;;5070212;28;20462;-71
2021/06/16 04:48:03;;;;;;;5.27;4.60;;;16.50;99.90;;;;;;5070377;28;20478;-72
2021/06/16 04:50:30;;;;;;;5.10;4.70;;;16.50;99.90;;;;;;5069791;28;20482;-72
2021/06/16 04:52:58;;;;;;;5.00;4.60;;;16.60;99.90;;;;;;5070511;28;20453;-72
2021/06/16 04:55:25;;;;;;;6.27;4.87;;;16.70;99.90;;;;;;5073926;28;20462;-71
2021/06/16 04:57:51;;;;;;;5.43;4.93;;;16.80;99.90;;;;;;5074023;28;20489;-71
2021/06/16 05:00:21;;;;;;;5.23;4.73;;;16.90;99.90;;;;;;5073972;28;20474;-72
2021/06/16 05:02:49;;;;;;;4.90;4.40;;;16.90;99.90;;;;;;5073723;28;21036;-71
2021/06/16 05:05:15;;;;;;;5.23;4.60;;;17.00;99.90;;;;;;5074048;28;20458;-72
2021/06/16 05:07:42;;;;;;;5.10;4.60;;;17.10;99.90;;;;;;5073799;28;20458;-72
2021/06/16 05:10:12;;;;;;;4.60;4.07;;;17.10;99.90;;;;;;5074140;28;20469;-72
2021/06/16 05:12:38;;;;;;;4.73;4.33;;;17.20;99.90;;;;;;5073376;28;20564;-72
2021/06/16 05:15:07;;;;;;;4.53;4.13;;;17.20;99.90;;;;;;5074242;28;20458;-71
2021/06/16 05:17:34;;;;;;;4.90;4.40;;;17.30;99.90;;;;;;5073934;28;20524;-72
2021/06/16 05:20:00;;;;;;;4.73;4.33;;;17.40;99.90;;;;;;5073979;28;20497;-72
2021/06/16 05:22:29;;;;;;;4.97;4.27;;;17.40;99.90;;;;;;5073392;28;20463;-71
2021/06/16 05:24:56;;;;;;;6.07;4.47;;;17.50;99.90;;;;;;5073515;28;20462;-72
2021/06/16 05:27:24;;;;;;;5.00;4.53;;;17.60;99.90;;;;;;5073449;28;20459;-72
2021/06/16 05:29:53;;;;;;;6.83;4.80;;;17.70;99.90;;;;;;5073528;28;20489;-72
2021/06/16 05:32:20;;;;;;;5.03;4.53;;;17.80;99.90;;;;;;5072827;28;20454;-72
2021/06/16 05:34:47;;;;;;;4.80;4.40;;;17.90;99.90;;;;;;5073609;28;20462;-72
2021/06/16 05:37:14;;;;;;;4.33;4.03;;;18.00;99.90;;;;;;5073227;28;20462;-72
2021/06/16 05:39:41;;;;;;;5.07;4.60;;;18.10;99.90;;;;;;5073413;28;20485;-71
2021/06/16 05:42:08;;;;;;;5.33;4.83;;;18.10;99.90;;;;;;5073173;28;20489;-72
2021/06/16 05:44:36;;;;;;;4.63;4.20;;;18.20;99.90;;;;;;5072961;28;20455;-72
2021/06/16 05:47:04;;;;;;;5.13;4.57;;;18.30;99.90;;;;;;5073408;28;20450;-72
2021/06/16 05:49:30;;;;;;;7.87;5.40;;;18.40;99.90;;;;;;5072913;28;20486;-71
2021/06/16 05:51:58;;;;;;;5.37;4.53;;;18.50;99.90;;;;;;5072989;28;20470;-72
2021/06/16 05:54:25;;;;;;;6.67;4.40;;;18.60;99.90;;;;;;5072478;28;20462;-72
2021/06/16 05:56:51;;;;;;;4.77;4.30;;;18.60;99.90;;;;;;5073094;28;20462;-73
2021/06/16 05:59:18;;;;;;;5.10;4.03;;;18.70;99.90;;;;;;5072658;28;20556;-72
2021/06/16 06:01:46;;;;;;;7.87;4.60;;;18.90;99.90;;;;;;5072449;28;20486;-72
2021/06/16 06:04:13;;;;;;;8.27;4.87;;;18.90;99.90;;;;;;5072742;28;20462;-71
2021/06/16 06:06:40;;;;;;;4.33;3.83;;;19.00;99.90;;;;;;5073039;28;20459;-71
2021/06/16 06:09:09;;;;;;;4.47;4.07;;;19.20;99.90;;;;;;5072735;28;20493;-72
2021/06/16 06:11:37;;;;;;;3.87;3.57;;;19.30;99.90;;;;;;5072251;28;20470;-71
2021/06/16 06:14:05;;;;;;;7.00;3.90;;;19.40;99.90;;;;;;5072568;28;20462;-72
2021/06/16 06:16:31;;;;;;;4.37;3.53;;;19.50;99.90;;;;;;5072668;28;20508;-72
2021/06/16 06:19:00;;;;;;;3.60;3.30;;;19.60;99.90;;;;;;5072548;28;20485;-71
2021/06/16 06:21:30;;;;;;;4.10;3.60;;;19.70;99.90;;;;;;5072052;28;20837;-72
2021/06/16 06:23:57;;;;;;;4.43;3.30;;;19.80;99.90;;;;;;5072675;28;20470;-73
2021/06/16 06:26:23;;;;;;;7.63;3.33;;;19.90;99.90;;;;;;5072082;28;20463;-72
2021/06/16 06:28:50;;;;;;;4.40;3.40;;;20.00;99.90;;;;;;5072319;28;20482;-72
2021/06/16 06:31:17;;;;;;;3.70;3.40;;;20.10;99.90;;;;;;5071855;28;20466;-72
2021/06/16 06:33:44;;;;;;;4.27;3.43;;;20.30;99.90;;;;;;5072283;28;20458;-72
2021/06/16 06:36:13;;;;;;;6.37;3.80;;;20.40;99.90;;;;;;5072595;28;20458;-71
2021/06/16 06:38:39;;;;;;;12.37;4.30;;;20.50;99.90;;;;;;5072047;28;20482;-72
2021/06/16 06:41:06;;;;;;;3.97;3.40;;;20.60;99.90;;;;;;5071888;28;20881;-72
2021/06/16 06:43:33;;;;;;;3.90;3.33;;;20.80;99.90;;;;;;5072160;28;20469;-73
2021/06/16 06:46:00;;;;;;;3.30;3.00;;;20.90;99.90;;;;;;5072130;28;20463;-72
2021/06/16 06:48:26;;;;;;;4.27;3.30;;;21.00;99.90;;;;;;5071706;28;20568;-72
2021/06/16 06:50:53;;;;;;;3.80;3.03;;;21.20;99.90;;;;;;5071550;28;20451;-73
2021/06/16 06:53:22;;;;;;;5.23;3.40;;;21.30;99.90;;;;;;5071902;28;20455;-71
2021/06/16 06:55:49;;;;;;;4.60;3.73;;;21.30;99.90;;;;;;5071658;28;21025;-72
2021/06/16 06:58:16;;;;;;;3.50;3.20;;;21.50;99.90;;;;;;5098032;22;20490;-65
2021/06/16 07:00:42;;;;;;;7.00;3.50;;;21.60;99.90;;;;;;5082503;28;20469;-65
2021/06/16 07:03:09;;;;;;;2.93;2.63;;;21.70;99.90;;;;;;5091409;28;20457;-66
2021/06/16 07:05:36;;;;;;;5.50;3.37;;;21.80;99.90;;;;;;5092143;28;20462;-65
2021/06/16 07:08:03;;;;;;;5.17;3.37;;;21.80;99.90;;;;;;5091577;28;20484;-65
2021/06/16 07:10:31;;;;;;;3.87;3.30;;;21.90;99.90;;;;;;5091938;28;20453;-66
2021/06/16 07:12:58;;;;;;;4.07;3.43;;;21.90;99.90;;;;;;5091641;28;20457;-65
2021/06/16 07:15:24;;;;;;;5.23;3.37;;;21.90;99.90;;;;;;5091531;28;20462;-66
2021/06/16 07:17:51;;;;;;;4.60;3.90;;;21.90;99.90;;;;;;5091677;28;20457;-65
2021/06/16 07:20:18;;;;;;;3.50;3.13;;;22.00;99.90;;;;;;5091693;28;20466;-65
2021/06/16 07:22:45;;;;;;;6.43;3.30;;;22.10;99.90;;;;;;5091617;28;20481;-66
2021/06/16 07:25:13;;;;;;;4.67;3.30;;;22.20;99.90;;;;;;5091322;28;20473;-65
2021/06/16 07:27:42;;;;;;;3.70;3.40;;;22.30;99.90;;;;;;5091716;28;20449;-66
2021/06/16 07:30:10;;;;;;;3.70;3.40;;;22.40;99.90;;;;;;5091613;28;20485;-65
2021/06/16 07:32:37;;;;;;;3.63;3.33;;;22.50;99.90;;;;;;5091071;28;20465;-66
2021/06/16 07:35:05;;;;;;;3.93;3.20;;;22.50;99.90;;;;;;5091478;28;20477;-65
2021/06/16 07:37:32;;;;;;;4.10;3.07;;;22.70;99.90;;;;;;5091509;28;20460;-65
2021/06/16 07:39:59;;;;;;;3.53;3.20;;;22.80;99.90;;;;;;5091205;28;20481;-65
2021/06/16 07:42:26;;;;;;;3.87;3.10;;;22.90;99.90;;;;;;5091239;28;20488;-66
2021/06/16 07:44:54;;;;;;;3.33;3.03;;;22.90;99.90;;;;;;5091155;28;20458;-65
2021/06/16 07:47:21;;;;;;;3.53;3.00;;;23.00;99.90;;;;;;5091321;28;20978;-66
2021/06/16 07:49:47;;;;;;;4.00;3.30;;;23.10;99.90;;;;;;5090912;28;20477;-66
2021/06/16 07:52:14;;;;;;;4.30;3.57;;;23.20;99.90;;;;;;5089797;28;20473;-66
2021/06/16 07:54:41;;;;;;;3.50;2.87;;;23.20;99.90;;;;;;5091094;28;20957;-65
2021/06/16 07:57:07;;;;;;;6.67;2.83;;;23.30;99.90;;;;;;5091194;28;20492;-66
2021/06/16 07:59:34;;;;;;;3.70;3.10;;;23.40;99.90;;;;;;5090948;28;21027;-65
2021/06/16 08:02:04;;;;;;;3.40;3.10;;;23.40;99.90;;;;;;5084055;28;20485;-66
2021/06/16 08:04:32;;;;;;;4.60;3.40;;;23.40;99.90;;;;;;5070749;28;20457;-65
2021/06/16 08:06:59;;;;;;;3.87;3.10;;;23.50;99.90;;;;;;5070635;28;20465;-65
2021/06/16 08:09:25;;;;;;;3.70;3.10;;;23.60;99.90;;;;;;5070680;28;21016;-65
2021/06/16 08:11:52;;;;;;;4.20;3.27;;;23.60;99.90;;;;;;5070193;28;20481;-66
2021/06/16 08:14:19;;;;;;;4.73;3.23;;;23.70;99.90;;;;;;5070261;28;20458;-66
2021/06/16 08:16:45;;;;;;;3.70;3.23;;;23.80;99.90;;;;;;5070791;28;20458;-65
2021/06/16 08:19:13;;;;;;;4.53;3.13;;;23.90;99.90;;;;;;5070756;28;20485;-65
2021/06/16 08:21:40;;;;;;;3.90;3.30;;;23.90;99.90;;;;;;5070188;28;20507;-66
2021/06/16 08:24:08;;;;;;;2.97;2.70;;;24.00;99.90;;;;;;5070596;28;20462;-66
2021/06/16 08:26:35;;;;;;;6.20;3.40;;;24.10;99.90;;;;;;5070539;28;20458;-65
2021/06/16 08:29:02;;;;;;;3.47;3.10;;;24.20;99.90;;;;;;5069528;28;20486;-66
2021/06/16 08:31:28;;;;;;;6.23;3.23;;;24.30;99.90;;;;;;5070262;28;20465;-65
2021/06/16 08:33:55;;;;;;;4.00;3.43;;;24.40;99.90;;;;;;5070411;28;20834;-66
2021/06/16 08:36:23;;;;;;;3.37;3.07;;;24.50;99.90;;;;;;5070739;28;20466;-66
2021/06/16 08:38:50;;;;;;;2.90;2.63;;;24.60;99.90;;;;;;5070078;28;20485;-66
2021/06/16 08:41:18;;;;;;;3.47;3.13;;;24.70;99.90;;;;;;5070329;28;20462;-65
2021/06/16 08:43:47;;;;;;;7.30;3.30;;;24.80;99.90;;;;;;5070097;28;20481;-65
2021/06/16 08:46:15;;;;;;;3.53;3.20;;;24.90;99.90;;;;;;5070827;28;20466;-66
2021/06/16 08:48:44;;;;;;;3.50;3.20;;;24.90;99.90;;;;;;5069995;28;20549;-66
2021/06/16 08:51:15;;;;;;;3.80;3.27;;;25.00;99.90;;;;;;5070259;28;20454;-66
2021/06/16 08:53:44;;;;;;;3.70;3.20;;;25.10;99.90;;;;;;5070286;28;20458;-65
2021/06/16 08:56:12;;;;;;;4.33;3.53;;;25.20;99.90;;;;;;5070424;28;20462;-66
2021/06/16 08:58:40;;;;;;;3.93;3.00;;;25.30;99.90;;;;;;5070003;28;20497;-66
2021/06/16 09:01:08;;;;;;;3.57;2.83;;;25.40;99.90;;;;;;5078478;28;20508;-65
2021/06/16 09:03:35;;;;;;;4.17;3.27;;;25.40;99.90;;;;;;5090146;28;20454;-64
2021/06/16 09:06:07;;;;;;;5.10;3.03;;;25.60;99.90;;;;;;5090433;28;20458;-65
2021/06/16 09:08:49;;;;;;;4.83;3.40;;;25.70;99.90;;;;;;5089977;28;20565;-65
2021/06/16 09:11:17;;;;;;;4.00;3.20;;;25.70;99.90;;;;;;5090069;28;20457;-66
2021/06/16 09:13:44;;;;;;;3.77;3.20;;;25.80;99.90;;;;;;5090072;28;20470;-66
2021/06/16 09:16:25;;;;;;;6.60;3.90;;;25.90;99.70;;;;;;5090458;28;20460;-66
2021/06/16 09:18:52;;;;;;;4.40;3.40;;;26.00;99.10;;;;;;5077111;28;20478;-66
2021/06/16 09:21:32;;;;;;;3.20;2.90;;;26.10;99.90;;;;;;5060630;28;20816;-66
2021/06/16 09:23:58;;;;;;;3.30;3.00;;;26.20;99.90;;;;;;5050088;28;20824;-66
2021/06/16 09:26:30;;;;;;;3.40;2.90;;;26.30;99.90;;;;;;5050040;28;20471;-66
2021/06/16 09:28:57;;;;;;;3.63;3.30;;;26.30;99.50;;;;;;5049766;28;20479;-67
2021/06/16 09:31:24;;;;;;;3.70;3.00;;;26.40;99.00;;;;;;5049335;28;20459;-66
2021/06/16 09:33:54;;;;;;;3.10;2.80;;;26.50;99.90;;;;;;5049600;28;20963;-66
2021/06/16 09:36:24;;;;;;;3.80;3.50;;;26.60;99.90;;;;;;5049773;28;20471;-64
2021/06/16 09:38:52;;;;;;;3.10;2.90;;;26.70;99.90;;;;;;5049775;28;20483;-66
2021/06/16 09:41:21;;;;;;;4.93;3.10;;;26.80;99.00;;;;;;5053207;28;20962;-66
2021/06/16 09:43:54;;;;;;;3.80;3.23;;;26.80;98.90;;;;;;5052973;28;20454;-65
2021/06/16 09:46:21;;;;;;;6.27;3.27;;;26.90;99.60;;;;;;5053465;28;20466;-65
2021/06/16 09:48:49;;;;;;;4.10;2.93;;;27.10;99.70;;;;;;5087589;28;20477;-65
2021/06/16 09:51:19;;;;;;;4.60;2.97;;;27.20;99.80;;;;;;5093507;28;20950;-64
2021/06/16 09:54:01;;;;;;;4.83;3.13;;;27.20;98.50;;;;;;5093440;28;20445;-64
2021/06/16 09:56:29;;;;;;;5.80;3.47;;;27.30;99.90;;;;;;5093666;28;20492;-66
2021/06/16 09:58:57;;;;;;;4.20;3.40;;;27.40;99.30;;;;;;5093146;28;20489;-65
2021/06/16 10:01:48;;;;;;;4.57;3.30;;;27.50;99.70;;;;;;5093029;28;20454;-66
2021/06/16 10:04:35;;;;;;;9.37;3.13;;;27.50;99.30;;;;;;5093234;28;21190;-66
2021/06/16 10:07:19;;;;;;;6.27;3.20;;;27.50;99.70;;;;;;5092953;28;20484;-66
2021/06/16 10:09:51;;;;;;;3.43;3.13;;;27.50;99.40;;;;;;5093060;28;20475;-66
2021/06/16 10:12:20;;;;;;;5.13;3.30;;;27.50;99.90;;;;;;5092566;28;20951;-66
2021/06/16 10:14:48;;;;;;;4.13;3.27;;;27.60;98.50;;;;;;5092938;28;20459;-65
2021/06/16 10:17:15;;;;;;;3.80;3.10;;;27.70;99.90;;;;;;5093033;28;20455;-66
2021/06/16 10:19:43;;;;;;;3.97;3.27;;;27.70;97.20;;;;;;5092631;28;20837;-66
2021/06/16 10:22:11;;;;;;;5.40;3.43;;;27.80;98.90;;;;;;5092674;28;20827;-66
2021/06/16 10:24:38;;;;;;;6.83;3.23;;;27.80;99.50;;;;;;5092462;28;20459;-65
2021/06/16 10:27:08;;;;;;;4.40;3.33;;;27.90;97.60;;;;;;5092986;28;20460;-65
2021/06/16 10:29:39;;;;;;;3.47;3.17;;;28.00;98.50;;;;;;5092781;28;20570;-65
2021/06/16 10:32:10;;;;;;;3.70;3.40;;;28.10;99.70;;;;;;5092492;28;20463;-66
2021/06/16 10:35:04;;;;;;;3.60;3.30;;;28.30;98.90;;;;;;5090700;28;20462;-66
2021/06/16 10:37:36;;;;;;;5.17;3.40;;;28.40;99.90;;;;;;5043121;28;20824;-65
2021/06/16 10:40:33;;;;;;;6.60;4.03;;;28.60;99.30;;;;;;5091970;28;20838;-66
2021/06/16 10:43:24;;;;;;;3.87;3.27;;;28.80;98.50;;;;;;5091813;28;20483;-66
2021/06/16 10:45:57;;;;;;;3.50;3.20;;;28.80;99.00;;;;;;5092312;28;20460;-65
2021/06/16 10:48:54;;;;;;;5.57;3.13;;;28.80;98.10;;;;;;5092091;28;20553;-66
2021/06/16 10:51:40;;;;;;;3.50;3.20;;;28.90;99.90;;;;;;5091098;28;20833;-66
2021/06/16 10:54:24;;;;;;;3.40;3.10;;;28.90;99.10;;;;;;5091990;28;20554;-65
2021/06/16 10:57:09;;;;;;;4.83;3.70;;;28.90;98.30;;;;;;5092048;28;20475;-66
2021/06/16 11:00:06;;;;;;;4.10;3.70;;;29.00;98.70;;;;;;5089607;28;20535;-66
2021/06/16 11:03:03;;;;;;;5.87;3.63;;;29.00;99.90;;;;;;5091759;28;20490;-66
2021/06/16 11:05:50;;;;;;;4.17;3.47;;;29.10;97.90;;;;;;5070608;28;20460;-67
2021/06/16 11:08:50;;;;;;;5.33;3.50;;;29.10;99.10;;;;;;5069503;28;20881;-66
2021/06/16 11:11:17;;;;;;;5.43;3.40;;;29.00;98.90;;;;;;5063236;28;20555;-67
2021/06/16 11:13:45;;;;;;;3.57;3.27;;;29.00;98.40;;;;;;5049711;28;20988;-67
2021/06/16 11:16:42;;;;;;;5.30;3.20;;;29.20;98.50;;;;;;5050046;28;20466;-66
2021/06/16 11:19:19;;;;;;;3.53;3.23;;;29.20;97.70;;;;;;5004171;28;20484;-65
2021/06/16 11:21:48;;;;;;;4.97;3.23;;;29.20;95.80;;;;;;5049439;28;20463;-65
2021/06/16 11:24:14;;;;;;;9.70;3.37;;;29.30;98.20;;;;;;5049537;28;20488;-65
2021/06/16 11:26:42;;;;;;;3.70;3.40;;;29.30;98.40;;;;;;5049324;28;20461;-66
2021/06/16 11:29:08;;;;;;;3.90;3.40;;;29.30;93.50;;;;;;5049596;28;20486;-66
2021/06/16 11:32:13;;;;;;;4.73;4.13;;;29.30;96.40;;;;;;5048806;28;20963;-65
2021/06/16 11:34:49;;;;;;;10.70;3.70;;;29.30;97.30;;;;;;5049524;28;20455;-66
2021/06/16 11:37:49;;;;;;;4.30;2.93;;;29.40;97.30;;;;;;5049533;28;20519;-66
2021/06/16 11:40:19;;;;;;;3.67;3.13;;;29.40;96.70;;;;;;5039363;28;20464;-65
2021/06/16 11:42:45;;;;;;;3.67;3.30;;;29.40;97.50;;;;;;5052772;28;20475;-66
2021/06/16 11:45:12;;;;;;;3.83;3.40;;;29.40;97.30;;;;;;5068955;28;20520;-66
2021/06/16 11:47:41;;;;;;;3.60;3.30;;;29.40;95.60;;;;;;5069250;28;20466;-66
2021/06/16 11:50:09;;;;;;;3.77;3.40;;;29.50;97.30;;;;;;5068920;28;20481;-66
2021/06/16 11:52:36;;;;;;;5.03;3.53;;;29.50;96.80;;;;;;5068609;28;20467;-66
2021/06/16 11:55:03;;;;;;;3.93;3.10;;;29.50;96.40;;;;;;5069355;28;20473;-66
2021/06/16 11:57:30;;;;;;;3.60;3.30;;;29.60;96.40;;;;;;5068759;28;20462;-65
2021/06/16 11:59:57;;;;;;;5.43;3.37;;;29.70;97.10;;;;;;5068714;28;21059;-65
2021/06/16 12:02:25;;;;;;;4.93;3.50;;;29.70;97.00;;;;;;5068603;28;20464;-65
2021/06/16 12:04:56;;;;;;;3.50;3.20;;;29.70;96.50;;;;;;5068553;28;20490;-66
2021/06/16 12:07:28;;;;;;;5.13;3.50;;;29.70;95.90;;;;;;5069316;28;20488;-66
2021/06/16 12:09:56;;;;;;;4.27;3.40;;;29.80;95.00;;;;;;5068596;28;20490;-66
2021/06/16 12:12:23;;;;;;;3.80;3.50;;;29.70;93.30;;;;;;5068434;28;20465;-66
2021/06/16 12:15:06;;;;;;;5.37;3.97;;;29.80;95.20;;;;;;5067521;28;20471;-66
2021/06/16 12:17:32;;;;;;;10.47;3.70;;;29.90;95.10;;;;;;5060341;28;20847;-66
2021/06/16 12:20:06;;;;;;;3.50;3.17;;;29.90;94.60;;;;;;5057417;28;20487;-66
2021/06/16 12:22:33;;;;;;;4.70;3.40;;;30.00;97.00;;;;;;5047885;28;20484;-66
2021/06/16 12:25:00;;;;;;;3.90;3.60;;;30.10;96.10;;;;;;5048248;28;20465;-66
2021/06/16 12:27:33;;;;;;;3.87;3.57;;;30.20;95.20;;;;;;5056174;28;21179;-65
2021/06/16 12:30:01;;;;;;;3.60;3.30;;;30.20;95.20;;;;;;5056511;28;20560;-66
2021/06/16 12:32:32;;;;;;;4.43;3.50;;;30.30;96.40;;;;;;5058854;28;20463;-66
2021/06/16 12:35:13;;;;;;;3.97;3.57;;;30.30;94.60;;;;;;5058408;28;20496;-66
2021/06/16 12:37:50;;;;;;;4.03;3.73;;;30.30;96.00;;;;;;5067233;28;20465;-66
2021/06/16 12:40:18;;;;;;;3.53;3.23;;;30.30;95.10;;;;;;5067200;28;20881;-66
2021/06/16 12:42:46;;;;;;;5.23;3.67;;;30.30;92.50;;;;;;5067388;28;20504;-66
2021/06/16 12:45:35;;;;;;;3.90;3.60;;;30.30;94.20;;;;;;5068328;28;20464;-66
2021/06/16 12:48:22;;;;;;;3.40;3.10;;;30.40;95.60;;;;;;5061882;28;20464;-67
2021/06/16 12:50:55;;;;;;;3.70;3.40;;;30.40;91.80;;;;;;5067713;28;20491;-67
2021/06/16 12:53:22;;;;;;;3.67;3.37;;;30.20;91.70;;;;;;5068026;28;20476;-67
2021/06/16 12:55:51;;;;;;;3.67;3.33;;;30.10;88.70;;;;;;5068010;28;20462;-66
2021/06/16 12:58:19;;;;;;;3.60;3.27;;;30.00;90.40;;;;;;5068048;28;20486;-67